createdAt,value
2022-08-16T00:01:28.887Z,19.80
2022-08-16T00:04:01.726Z,19.80
2022-08-16T00:06:33.321Z,19.80
2022-08-16T00:09:01.192Z,19.80
2022-08-16T00:11:29.141Z,19.80
2022-08-16T00:13:57.126Z,19.90
2022-08-16T00:17:05.459Z,19.80
2022-08-16T00:19:22.761Z,19.80
2022-08-16T00:21:51.869Z,19.70
2022-08-16T00:24:32.351Z,19.70
2022-08-16T00:27:03.386Z,19.70
2022-08-16T00:29:32.866Z,19.80
2022-08-16T00:32:05.528Z,19.80
2022-08-16T00:34:44.300Z,19.70
2022-08-16T00:37:57.351Z,19.70
2022-08-16T00:40:34.179Z,19.80
2022-08-16T00:43:12.018Z,19.80
2022-08-16T00:46:33.118Z,19.70
2022-08-16T00:49:17.520Z,19.70
2022-08-16T00:51:55.210Z,19.60
2022-08-16T00:54:29.891Z,19.50
2022-08-16T00:57:04.869Z,19.50
2022-08-16T00:59:39.256Z,19.40
2022-08-16T01:02:30.590Z,19.40
2022-08-16T01:05:10.512Z,19.40
2022-08-16T01:07:51.751Z,19.40
2022-08-16T01:10:31.968Z,19.40
2022-08-16T01:13:12.171Z,19.30
2022-08-16T01:15:52.889Z,19.30
2022-08-16T01:18:39.380Z,19.20
2022-08-16T01:21:47.257Z,19.20
2022-08-16T01:24:52.049Z,19.20
2022-08-16T01:27:38.645Z,19.10
2022-08-16T01:30:21.718Z,19.10
2022-08-16T01:33:02.607Z,18.90
2022-08-16T01:36:00.859Z,18.80
2022-08-16T01:38:34.385Z,18.80
2022-08-16T01:41:08.172Z,18.90
2022-08-16T01:43:40.335Z,18.90
2022-08-16T01:46:39.153Z,19.00
2022-08-16T01:49:45.757Z,19.00
2022-08-16T01:52:30.926Z,19.00
2022-08-16T01:55:05.551Z,19.00
2022-08-16T01:57:35.549Z,18.90
2022-08-16T02:00:19.271Z,18.90
2022-08-16T02:02:57.410Z,18.90
2022-08-16T02:05:25.451Z,18.90
2022-08-16T02:07:59.176Z,18.80
2022-08-16T02:10:27.803Z,18.80
2022-08-16T02:13:00.644Z,18.80
2022-08-16T02:15:38.679Z,18.80
2022-08-16T02:18:12.444Z,18.80
2022-08-16T02:20:47.547Z,18.80
2022-08-16T02:23:18.247Z,18.80
2022-08-16T02:25:52.747Z,18.70
2022-08-16T02:28:24.897Z,18.70
2022-08-16T02:30:56.576Z,18.70
2022-08-16T02:33:43.763Z,18.80
2022-08-16T02:36:47.147Z,18.70
2022-08-16T02:39:14.830Z,18.70
2022-08-16T02:41:44.823Z,18.70
2022-08-16T02:44:21.833Z,18.40
2022-08-16T02:46:53.949Z,18.30
2022-08-16T02:49:58.437Z,18.30
2022-08-16T02:52:24.376Z,18.20
2022-08-16T02:54:57.236Z,18.20
2022-08-16T02:57:27.440Z,18.10
2022-08-16T02:59:56.342Z,18.20
2022-08-16T03:02:31.969Z,18.20
2022-08-16T03:05:05.152Z,18.30
2022-08-16T03:07:37.279Z,18.40
2022-08-16T03:10:12.792Z,18.40
2022-08-16T03:12:55.300Z,18.40
2022-08-16T03:15:27.761Z,18.30
2022-08-16T03:17:56.603Z,18.30
2022-08-16T03:20:32.200Z,18.40
2022-08-16T03:23:03.081Z,18.50
2022-08-16T03:25:43.092Z,18.50
2022-08-16T03:28:14.127Z,18.50
2022-08-16T03:30:47.446Z,18.60
2022-08-16T03:33:16.708Z,18.60
2022-08-16T03:35:59.312Z,18.60
2022-08-16T03:38:48.149Z,18.70
2022-08-16T03:41:25.298Z,18.70
2022-08-16T03:43:59.397Z,18.70
2022-08-16T03:46:47.506Z,18.70
2022-08-16T03:49:36.515Z,18.60
2022-08-16T03:52:07.761Z,18.60
2022-08-16T03:54:37.880Z,18.60
2022-08-16T03:57:06.134Z,18.60
2022-08-16T03:59:39.572Z,18.60
2022-08-16T04:02:22.268Z,18.60
2022-08-16T04:04:54.223Z,18.60
2022-08-16T04:07:24.900Z,18.60
2022-08-16T04:09:53.605Z,18.50
2022-08-16T04:12:53.308Z,18.50
2022-08-16T04:15:13.566Z,18.50
2022-08-16T04:17:55.198Z,18.50
2022-08-16T04:20:37.042Z,18.50
2022-08-16T04:23:09.141Z,18.60
2022-08-16T04:25:39.758Z,18.60
2022-08-16T04:28:52.093Z,18.50
2022-08-16T04:31:02.029Z,18.50
2022-08-16T04:33:37.069Z,18.50
2022-08-16T04:36:06.047Z,18.50
2022-08-16T04:38:34.431Z,18.60
2022-08-16T04:41:03.868Z,18.60
2022-08-16T04:43:38.231Z,18.60
2022-08-16T04:47:00.130Z,18.60
2022-08-16T04:49:04.195Z,18.70
2022-08-16T04:51:35.947Z,18.70
2022-08-16T04:54:04.773Z,18.70
2022-08-16T04:56:35.383Z,18.70
2022-08-16T04:59:14.093Z,18.70
2022-08-16T05:01:58.023Z,18.80
2022-08-16T05:04:30.002Z,18.90
2022-08-16T05:06:59.823Z,18.90
2022-08-16T05:09:45.078Z,19.00
2022-08-16T05:12:18.184Z,19.00
2022-08-16T05:15:02.667Z,19.10
2022-08-16T05:17:33.469Z,19.00
2022-08-16T05:20:39.403Z,19.10
2022-08-16T05:22:58.051Z,19.20
2022-08-16T05:25:40.638Z,19.20
2022-08-16T05:28:12.376Z,19.20
2022-08-16T05:30:50.433Z,19.20
2022-08-16T05:33:23.059Z,19.20
2022-08-16T05:35:55.253Z,19.20
2022-08-16T05:38:50.183Z,19.20
2022-08-16T05:41:20.174Z,19.30
2022-08-16T05:43:51.041Z,19.30
2022-08-16T05:46:35.751Z,19.40
2022-08-16T05:49:17.240Z,19.30
2022-08-16T05:51:56.315Z,19.20
2022-08-16T05:54:28.016Z,19.30
2022-08-16T05:57:00.166Z,19.20
2022-08-16T05:59:29.878Z,19.20
2022-08-16T06:01:58.858Z,19.30
2022-08-16T06:04:34.826Z,19.30
2022-08-16T06:07:08.204Z,19.30
2022-08-16T06:09:46.321Z,19.30
2022-08-16T06:12:27.302Z,19.40
2022-08-16T06:15:09.895Z,19.40
2022-08-16T06:17:44.096Z,19.40
2022-08-16T06:20:35.274Z,19.40
2022-08-16T06:23:17.573Z,19.40
2022-08-16T06:25:58.846Z,19.50
2022-08-16T06:28:34.938Z,19.50
2022-08-16T06:31:12.262Z,19.60
2022-08-16T06:33:44.748Z,19.70
2022-08-16T06:36:15.309Z,19.80
2022-08-16T06:38:56.335Z,19.80
2022-08-16T06:41:47.743Z,20.00
2022-08-16T06:44:35.371Z,20.00
2022-08-16T06:47:06.754Z,20.00
2022-08-16T06:49:39.150Z,20.10
2022-08-16T06:52:57.221Z,20.10
2022-08-16T06:55:02.538Z,20.10
2022-08-16T06:57:30.509Z,20.20
2022-08-16T06:59:58.754Z,20.20
2022-08-16T07:02:51.294Z,20.30
2022-08-16T07:05:27.223Z,20.40
2022-08-16T07:08:14.254Z,20.40
2022-08-16T07:10:42.677Z,20.50
2022-08-16T07:13:12.727Z,20.60
2022-08-16T07:15:50.408Z,20.60
2022-08-16T07:18:24.432Z,20.60
2022-08-16T07:20:53.848Z,20.70
2022-08-16T07:23:37.204Z,20.80
2022-08-16T07:26:25.309Z,20.90
2022-08-16T07:28:56.003Z,20.90
2022-08-16T07:31:24.519Z,21.00
2022-08-16T07:34:10.278Z,21.00
2022-08-16T07:36:40.112Z,21.10
2022-08-16T07:39:08.877Z,21.20
2022-08-16T07:41:39.952Z,21.20
2022-08-16T07:44:16.290Z,21.20
2022-08-16T07:46:45.982Z,21.20
2022-08-16T07:49:19.695Z,21.10
2022-08-16T07:51:48.492Z,21.20
2022-08-16T07:54:20.654Z,21.20
2022-08-16T07:56:52.400Z,21.30
2022-08-16T07:59:21.952Z,21.40
2022-08-16T08:01:53.247Z,21.50
2022-08-16T08:04:23.125Z,21.50
2022-08-16T08:06:52.241Z,21.60
2022-08-16T08:09:20.437Z,21.50
2022-08-16T08:12:00.686Z,21.60
2022-08-16T08:14:36.902Z,21.60
2022-08-16T08:17:08.687Z,21.60
2022-08-16T08:19:37.621Z,21.70
2022-08-16T08:22:19.203Z,21.70
2022-08-16T08:24:53.371Z,21.70
2022-08-16T08:27:27.791Z,21.80
2022-08-16T08:30:49.577Z,21.90
2022-08-16T08:32:59.806Z,21.90
2022-08-16T08:35:35.717Z,22.00
2022-08-16T08:38:07.715Z,22.20
2022-08-16T08:40:39.118Z,22.30
2022-08-16T08:43:12.624Z,22.40
2022-08-16T08:45:55.801Z,22.60
2022-08-16T08:48:33.744Z,22.80
2022-08-16T08:51:09.843Z,23.00
2022-08-16T08:53:57.511Z,23.20
2022-08-16T08:56:35.151Z,23.30
2022-08-16T08:59:29.317Z,23.30
2022-08-16T09:01:58.788Z,23.20
2022-08-16T09:04:34.804Z,23.10
2022-08-16T09:07:06.173Z,23.00
2022-08-16T09:09:40.902Z,23.00
2022-08-16T09:12:30.255Z,23.00
2022-08-16T09:15:08.172Z,23.20
2022-08-16T09:17:51.512Z,23.30
2022-08-16T09:20:25.784Z,23.40
2022-08-16T09:22:55.172Z,23.50
2022-08-16T09:25:49.350Z,23.50
2022-08-16T09:29:06.715Z,23.50
2022-08-16T09:31:16.660Z,23.50
2022-08-16T09:33:45.313Z,23.50
2022-08-16T09:36:31.645Z,23.40
2022-08-16T09:39:03.440Z,23.40
2022-08-16T09:41:32.254Z,23.50
2022-08-16T09:44:02.325Z,23.50
2022-08-16T09:46:44.444Z,23.50
2022-08-16T09:49:16.831Z,23.50
2022-08-16T09:51:54.584Z,23.60
2022-08-16T09:54:32.733Z,23.70
2022-08-16T09:57:02.452Z,23.90
2022-08-16T09:59:31.491Z,24.00
2022-08-16T10:02:26.471Z,24.20
2022-08-16T10:04:57.098Z,24.30
2022-08-16T10:07:44.086Z,24.40
2022-08-16T10:10:19.041Z,24.40
2022-08-16T10:13:12.150Z,24.40
2022-08-16T10:15:53.382Z,24.50
2022-08-16T10:18:54.142Z,24.50
2022-08-16T10:21:11.981Z,24.60
2022-08-16T10:23:40.532Z,24.60
2022-08-16T10:27:16.669Z,24.50
2022-08-16T10:29:00.479Z,24.60
2022-08-16T10:31:45.471Z,24.70
2022-08-16T10:34:31.349Z,24.90
2022-08-16T10:37:02.114Z,24.90
2022-08-16T10:39:40.432Z,24.90
2022-08-16T10:42:13.357Z,24.90
2022-08-16T10:44:42.380Z,25.00
2022-08-16T10:47:11.667Z,25.20
2022-08-16T10:49:39.662Z,25.20
2022-08-16T10:52:18.859Z,25.20
2022-08-16T10:57:35.194Z,25.40
2022-08-16T11:00:22.558Z,25.40
2022-08-16T11:03:37.433Z,25.50
2022-08-16T11:08:35.560Z,25.70
2022-08-16T11:11:12.893Z,25.60
2022-08-16T11:14:10.636Z,25.80
2022-08-16T11:19:24.578Z,26.10
2022-08-16T11:24:44.914Z,26.20
2022-08-16T11:33:55.653Z,26.50
2022-08-16T11:36:27.430Z,26.30
2022-08-16T11:39:00.158Z,26.20
2022-08-16T11:41:30.803Z,26.30
2022-08-16T11:44:01.146Z,26.30
2022-08-16T11:46:44.633Z,26.30
2022-08-16T11:49:14.957Z,26.30
2022-08-16T11:51:45.431Z,26.30
2022-08-16T11:54:20.613Z,26.30
2022-08-16T11:56:57.341Z,26.30
2022-08-16T11:59:29.411Z,26.30
2022-08-16T12:01:59.682Z,26.20
2022-08-16T12:04:28.666Z,26.20
2022-08-16T12:06:58.748Z,26.20
2022-08-16T12:09:29.494Z,26.30
2022-08-16T12:12:02.993Z,26.30
2022-08-16T12:14:35.518Z,26.30
2022-08-16T12:17:08.321Z,26.40
2022-08-16T12:19:36.565Z,26.30
2022-08-16T12:22:18.824Z,26.30
2022-08-16T12:24:52.314Z,26.30
2022-08-16T12:27:25.502Z,26.20
2022-08-16T12:29:54.442Z,26.30
2022-08-16T12:32:36.184Z,26.30
2022-08-16T12:35:13.538Z,26.40
2022-08-16T12:37:42.930Z,26.50
2022-08-16T12:40:24.975Z,26.60
2022-08-16T12:42:59.776Z,26.70
2022-08-16T12:45:39.281Z,26.80
2022-08-16T12:48:34.862Z,27.00
2022-08-16T12:51:19.922Z,27.00
2022-08-16T12:53:55.808Z,27.20
2022-08-16T12:56:33.540Z,27.30
2022-08-16T12:59:09.701Z,27.30
2022-08-16T13:01:41.863Z,27.40
2022-08-16T13:04:12.021Z,27.50
2022-08-16T13:06:52.072Z,27.60
2022-08-16T13:09:26.438Z,27.70
2022-08-16T13:12:19.445Z,27.70
2022-08-16T13:14:50.007Z,27.80
2022-08-16T13:17:29.481Z,28.00
2022-08-16T13:20:13.661Z,28.20
2022-08-16T13:22:53.973Z,28.30
2022-08-16T13:25:24.820Z,28.30
2022-08-16T13:28:02.343Z,28.40
2022-08-16T13:30:49.332Z,28.50
2022-08-16T13:33:30.098Z,28.60
2022-08-16T13:36:01.081Z,28.80
2022-08-16T13:38:37.727Z,28.90
2022-08-16T13:41:10.176Z,29.00
2022-08-16T13:43:39.413Z,29.20
2022-08-16T13:46:07.844Z,29.30
2022-08-16T13:48:44.183Z,29.60
2022-08-16T13:51:19.044Z,29.80
2022-08-16T13:53:58.285Z,30.00
2022-08-16T13:56:36.936Z,30.20
2022-08-16T13:59:19.810Z,30.50
2022-08-16T14:01:59.481Z,30.50
2022-08-16T14:04:34.242Z,30.60
2022-08-16T14:07:08.123Z,30.60
2022-08-16T14:09:36.991Z,30.70
2022-08-16T14:12:17.928Z,30.70
2022-08-16T14:14:47.871Z,31.00
2022-08-16T14:17:16.666Z,30.90
2022-08-16T14:19:46.265Z,31.10
2022-08-16T14:22:35.969Z,31.10
2022-08-16T14:25:18.634Z,31.30
2022-08-16T14:27:47.369Z,31.20
2022-08-16T14:30:18.683Z,31.10
2022-08-16T14:32:51.175Z,31.30
2022-08-16T14:35:29.496Z,31.50
2022-08-16T14:38:18.683Z,31.60
2022-08-16T14:40:52.642Z,31.70
2022-08-16T14:43:25.396Z,31.80
2022-08-16T14:45:55.613Z,31.60
2022-08-16T14:48:26.241Z,31.90
2022-08-16T14:50:55.574Z,32.10
2022-08-16T14:53:26.417Z,32.20
2022-08-16T14:55:54.823Z,32.40
2022-08-16T14:58:34.519Z,32.40
2022-08-16T15:01:06.555Z,32.50
2022-08-16T15:03:38.566Z,32.50
2022-08-16T15:06:13.200Z,32.50
2022-08-16T15:08:43.722Z,32.60
2022-08-16T15:11:13.957Z,32.80
2022-08-16T15:13:42.472Z,32.80
2022-08-16T15:16:10.270Z,32.80
2022-08-16T15:18:39.267Z,32.70
2022-08-16T15:21:08.698Z,32.80
2022-08-16T15:23:36.946Z,32.60
2022-08-16T15:26:09.154Z,32.60
2022-08-16T15:28:38.313Z,32.70
2022-08-16T15:31:09.320Z,32.80
2022-08-16T15:33:56.393Z,32.60
2022-08-16T15:36:26.376Z,32.40
2022-08-16T15:39:06.824Z,32.40
2022-08-16T15:41:47.028Z,32.30
2022-08-16T15:44:22.555Z,32.50
2022-08-16T15:46:54.797Z,32.50
2022-08-16T15:49:37.414Z,32.40
2022-08-16T15:52:20.854Z,32.40
2022-08-16T15:54:58.061Z,32.30
2022-08-16T15:57:36.821Z,32.30
2022-08-16T16:00:14.967Z,32.30
2022-08-16T16:02:44.352Z,32.10
2022-08-16T16:05:13.585Z,32.10
2022-08-16T16:07:56.922Z,31.90
2022-08-16T16:10:31.269Z,31.70
2022-08-16T16:13:03.775Z,31.50
2022-08-16T16:15:38.685Z,31.20
2022-08-16T16:18:09.855Z,30.90
2022-08-16T16:20:51.921Z,30.80
2022-08-16T16:23:55.042Z,30.60
2022-08-16T16:26:26.822Z,30.60
2022-08-16T16:29:07.532Z,30.40
2022-08-16T16:31:37.073Z,30.40
2022-08-16T16:34:10.073Z,30.30
2022-08-16T16:36:39.968Z,30.10
2022-08-16T16:39:11.745Z,30.00
2022-08-16T16:41:40.177Z,29.90
2022-08-16T16:44:10.462Z,29.90
2022-08-16T16:46:56.624Z,29.90
2022-08-16T16:49:26.414Z,29.90
2022-08-16T16:51:55.125Z,29.80
2022-08-16T16:54:35.720Z,29.80
2022-08-16T16:57:04.261Z,29.70
2022-08-16T16:59:32.072Z,29.60
2022-08-16T17:02:41.710Z,29.60
2022-08-16T17:04:49.089Z,29.60
2022-08-16T17:07:17.436Z,29.50
2022-08-16T17:09:46.944Z,29.50
2022-08-16T17:12:24.615Z,29.50
2022-08-16T17:14:55.024Z,29.40
2022-08-16T17:17:23.373Z,29.40
2022-08-16T17:19:51.706Z,29.30
2022-08-16T17:22:22.162Z,29.30
2022-08-16T17:24:52.803Z,29.20
2022-08-16T17:27:32.622Z,29.10
2022-08-16T17:30:16.569Z,29.00
2022-08-16T17:32:56.134Z,28.90
2022-08-16T17:35:41.080Z,28.80
2022-08-16T17:38:11.138Z,28.70
2022-08-16T17:40:59.443Z,28.60
2022-08-16T17:43:34.480Z,28.50
2022-08-16T17:46:50.493Z,28.40
2022-08-16T17:48:57.326Z,28.30
2022-08-16T17:51:28.608Z,28.20
2022-08-16T17:53:57.130Z,28.20
2022-08-16T17:56:24.948Z,28.10
2022-08-16T17:58:52.735Z,28.00
2022-08-16T18:01:27.323Z,27.90
2022-08-16T18:04:07.120Z,27.80
2022-08-16T18:06:39.769Z,27.80
2022-08-16T18:09:08.562Z,27.70
2022-08-16T18:11:40.987Z,27.60
2022-08-16T18:14:10.054Z,27.60
2022-08-16T18:16:37.768Z,27.40
2022-08-16T18:19:05.560Z,27.30
2022-08-16T18:21:52.092Z,27.20
2022-08-16T18:24:20.216Z,27.20
2022-08-16T18:26:48.053Z,27.10
2022-08-16T18:29:16.261Z,27.00
2022-08-16T18:31:44.290Z,26.90
2022-08-16T18:34:12.209Z,26.80
2022-08-16T18:36:40.157Z,26.70
2022-08-16T18:39:07.904Z,26.70
2022-08-16T18:41:37.910Z,26.60
2022-08-16T18:44:25.077Z,26.60
2022-08-16T18:46:55.841Z,26.40
2022-08-16T18:49:23.688Z,26.40
2022-08-16T18:51:57.134Z,26.30
2022-08-16T18:54:26.328Z,26.20
2022-08-16T18:56:57.502Z,26.20
2022-08-16T18:59:30.750Z,26.10
2022-08-16T19:02:04.861Z,26.00
2022-08-16T19:04:50.646Z,25.90
2022-08-16T19:07:31.179Z,25.90
2022-08-16T19:10:03.075Z,25.80
2022-08-16T19:12:38.384Z,25.80
2022-08-16T19:15:22.536Z,25.70
2022-08-16T19:17:50.525Z,25.70
2022-08-16T19:20:22.080Z,25.60
2022-08-16T19:23:09.822Z,25.50
2022-08-16T19:25:48.484Z,25.50
2022-08-16T19:28:58.536Z,25.40
2022-08-16T19:31:27.098Z,25.40
2022-08-16T19:33:56.876Z,25.30
2022-08-16T19:36:35.219Z,25.20
2022-08-16T19:39:15.609Z,25.10
2022-08-16T19:41:52.049Z,25.00
2022-08-16T19:44:22.898Z,25.00
2022-08-16T19:46:51.336Z,24.90
2022-08-16T19:49:19.250Z,24.90
2022-08-16T19:51:49.090Z,24.80
2022-08-16T19:54:17.607Z,24.80
2022-08-16T19:56:45.387Z,24.70
2022-08-16T19:59:19.739Z,24.70
2022-08-16T20:01:52.058Z,24.60
2022-08-16T20:04:22.741Z,24.50
2022-08-16T20:06:53.117Z,24.50
2022-08-16T20:09:23.257Z,24.50
2022-08-16T20:11:53.224Z,24.40
2022-08-16T20:14:25.246Z,24.40
2022-08-16T20:16:59.549Z,24.40
2022-08-16T20:19:32.536Z,24.30
2022-08-16T20:22:21.607Z,24.30
2022-08-16T20:25:06.437Z,24.30
2022-08-16T20:27:34.398Z,24.20
2022-08-16T20:30:04.972Z,24.10
2022-08-16T20:32:35.921Z,24.10
2022-08-16T20:35:08.622Z,24.10
2022-08-16T20:37:38.561Z,24.10
2022-08-16T20:40:33.321Z,24.00
2022-08-16T20:43:14.227Z,23.90
2022-08-16T20:45:46.701Z,23.90
2022-08-16T20:48:15.314Z,23.90
2022-08-16T20:50:43.875Z,23.80
2022-08-16T20:53:12.141Z,23.70
2022-08-16T20:55:41.752Z,23.70
2022-08-16T20:58:09.508Z,23.70
2022-08-16T21:00:37.903Z,23.70
2022-08-16T21:03:12.089Z,23.70
2022-08-16T21:05:40.389Z,23.60
2022-08-16T21:08:50.997Z,23.60
2022-08-16T21:10:57.088Z,23.60
2022-08-16T21:13:25.763Z,23.50
2022-08-16T21:15:53.583Z,23.50
2022-08-16T21:18:22.218Z,23.40
2022-08-16T21:20:50.451Z,23.40
2022-08-16T21:23:18.717Z,23.40
2022-08-16T21:25:59.020Z,23.40
2022-08-16T21:28:41.386Z,23.40
2022-08-16T21:31:11.618Z,23.30
2022-08-16T21:33:39.630Z,23.30
2022-08-16T21:36:07.945Z,23.20
2022-08-16T21:38:35.833Z,23.20
2022-08-16T21:41:06.500Z,23.10
2022-08-16T21:43:34.479Z,23.10
2022-08-16T21:46:04.726Z,23.10
2022-08-16T21:48:35.975Z,23.10
2022-08-16T21:51:08.263Z,23.10
2022-08-16T21:53:37.681Z,23.00
2022-08-16T21:56:08.288Z,23.00
2022-08-16T21:58:42.717Z,23.00
2022-08-16T22:01:10.769Z,23.00
2022-08-16T22:03:38.546Z,22.90
2022-08-16T22:06:13.278Z,22.90
2022-08-16T22:08:50.324Z,22.90
2022-08-16T22:11:22.661Z,22.90
2022-08-16T22:13:58.725Z,22.90
2022-08-16T22:16:36.332Z,22.80
2022-08-16T22:19:05.584Z,22.80
2022-08-16T22:21:34.856Z,22.70
2022-08-16T22:24:03.536Z,22.80
2022-08-16T22:26:41.044Z,22.70
2022-08-16T22:29:13.971Z,22.70
2022-08-16T22:31:43.968Z,22.70
2022-08-16T22:34:13.040Z,22.60
2022-08-16T22:36:40.960Z,22.60
2022-08-16T22:39:12.212Z,22.60
2022-08-16T22:41:42.353Z,22.60
2022-08-16T22:44:10.303Z,22.50
2022-08-16T22:46:39.010Z,22.50
2022-08-16T22:49:07.577Z,22.50
2022-08-16T22:51:37.357Z,22.50
2022-08-16T22:54:44.103Z,22.40
2022-08-16T22:56:55.039Z,22.40
2022-08-16T22:59:24.965Z,22.40
2022-08-16T23:01:53.647Z,22.30
2022-08-16T23:04:22.278Z,22.40
2022-08-16T23:06:50.049Z,22.40
2022-08-16T23:09:18.354Z,22.30
2022-08-16T23:11:46.220Z,22.40
2022-08-16T23:14:14.090Z,22.40
2022-08-16T23:16:42.718Z,22.40
2022-08-16T23:19:14.056Z,22.40
2022-08-16T23:21:46.542Z,22.40
2022-08-16T23:24:17.658Z,22.50
2022-08-16T23:26:48.715Z,22.40
2022-08-16T23:29:25.694Z,22.40
2022-08-16T23:32:08.400Z,22.40
2022-08-16T23:34:36.797Z,22.40
2022-08-16T23:37:04.579Z,22.40
2022-08-16T23:39:32.859Z,22.30
2022-08-16T23:42:00.802Z,22.30
2022-08-16T23:44:55.096Z,22.30
2022-08-16T23:47:16.367Z,22.20
2022-08-16T23:50:01.387Z,22.20
2022-08-16T23:52:45.192Z,22.20
2022-08-16T23:55:19.216Z,22.20
2022-08-16T23:57:48.023Z,22.20
